createdAt,value
2023-03-16T00:00:16.570Z,2.40
2023-03-16T00:02:45.232Z,2.80
2023-03-16T00:05:13.956Z,2.63
2023-03-16T00:07:42.071Z,2.75
2023-03-16T00:10:12.324Z,3.22
2023-03-16T00:12:39.557Z,2.90
2023-03-16T00:15:06.859Z,2.75
2023-03-16T00:17:34.730Z,2.88
2023-03-16T00:20:06.796Z,2.63
2023-03-16T00:22:34.198Z,2.60
2023-03-16T00:25:01.752Z,2.75
2023-03-16T00:27:29.589Z,2.80
2023-03-16T00:29:56.520Z,2.60
2023-03-16T00:32:29.316Z,2.70
2023-03-16T00:34:56.302Z,2.92
2023-03-16T00:37:24.248Z,2.70
2023-03-16T00:39:51.503Z,2.13
2023-03-16T00:42:19.681Z,2.25
2023-03-16T00:44:46.931Z,2.83
2023-03-16T00:47:16.904Z,2.47
2023-03-16T00:49:44.749Z,3.15
2023-03-16T00:52:16.177Z,3.25
2023-03-16T00:54:45.076Z,2.70
2023-03-16T00:57:14.043Z,2.70
2023-03-16T00:59:40.850Z,2.85
2023-03-16T01:02:09.232Z,2.90
2023-03-16T01:04:36.594Z,2.83
2023-03-16T01:07:12.404Z,3.00
2023-03-16T01:09:42.810Z,3.10
2023-03-16T01:12:15.978Z,2.78
2023-03-16T01:14:45.768Z,2.92
2023-03-16T01:17:13.950Z,3.20
2023-03-16T01:19:41.619Z,3.05
2023-03-16T01:22:10.205Z,2.95
2023-03-16T01:24:37.405Z,3.65
2023-03-16T01:27:05.252Z,3.22
2023-03-16T01:29:33.100Z,3.25
2023-03-16T01:32:00.529Z,3.28
2023-03-16T01:34:28.067Z,3.00
2023-03-16T01:36:54.636Z,3.88
2023-03-16T01:39:21.062Z,3.28
2023-03-16T01:41:47.954Z,2.90
2023-03-16T01:44:22.400Z,3.08
2023-03-16T01:46:48.937Z,3.17
2023-03-16T01:49:25.192Z,3.22
2023-03-16T01:52:02.574Z,3.63
2023-03-16T01:54:40.902Z,3.22
2023-03-16T01:57:18.360Z,3.03
2023-03-16T02:00:18.516Z,3.80
2023-03-16T02:02:48.536Z,2.95
2023-03-16T02:05:25.649Z,2.90
2023-03-16T02:07:58.876Z,2.97
2023-03-16T02:10:28.883Z,3.70
2023-03-16T02:12:55.668Z,3.40
2023-03-16T02:15:22.190Z,3.08
2023-03-16T02:17:50.340Z,3.20
2023-03-16T02:20:29.145Z,3.17
2023-03-16T02:22:55.944Z,2.92
2023-03-16T02:25:27.000Z,2.97
2023-03-16T02:28:00.573Z,3.50
2023-03-16T02:30:27.654Z,3.10
2023-03-16T02:32:54.928Z,3.25
2023-03-16T02:35:21.998Z,2.97
2023-03-16T02:37:48.705Z,3.78
2023-03-16T02:40:25.685Z,2.92
2023-03-16T02:43:05.287Z,3.42
2023-03-16T02:45:39.258Z,2.92
2023-03-16T02:48:14.938Z,2.90
2023-03-16T02:50:49.899Z,2.85
2023-03-16T02:53:17.600Z,3.05
2023-03-16T02:55:45.008Z,2.85
2023-03-16T02:58:11.745Z,3.13
2023-03-16T03:00:38.555Z,3.60
2023-03-16T03:03:08.247Z,2.75
2023-03-16T03:05:35.362Z,2.97
2023-03-16T03:08:01.724Z,3.30
2023-03-16T03:10:28.506Z,3.08
2023-03-16T03:12:55.133Z,3.08
2023-03-16T03:15:21.882Z,2.88
2023-03-16T03:17:48.393Z,2.75
2023-03-16T03:20:16.597Z,2.95
2023-03-16T03:22:48.646Z,3.22
2023-03-16T03:25:17.185Z,3.17
2023-03-16T03:27:44.986Z,3.67
2023-03-16T03:30:14.687Z,2.90
2023-03-16T03:32:41.662Z,2.88
2023-03-16T03:35:08.630Z,3.28
2023-03-16T03:37:35.248Z,3.17
2023-03-16T03:40:10.350Z,2.88
2023-03-16T03:42:36.744Z,3.28
2023-03-16T03:45:03.440Z,2.50
2023-03-16T03:47:29.901Z,2.63
2023-03-16T03:49:56.400Z,2.67
2023-03-16T03:52:22.889Z,2.33
2023-03-16T03:54:49.341Z,2.80
2023-03-16T03:57:15.863Z,2.63
2023-03-16T03:59:45.254Z,2.70
2023-03-16T04:02:13.288Z,2.55
2023-03-16T04:04:41.720Z,2.90
2023-03-16T04:07:08.737Z,2.60
2023-03-16T04:09:35.219Z,2.53
2023-03-16T04:12:05.159Z,2.67
2023-03-16T04:14:32.517Z,2.72
2023-03-16T04:16:59.346Z,2.22
2023-03-16T04:19:26.352Z,2.70
2023-03-16T04:21:53.287Z,2.95
2023-03-16T04:24:19.914Z,2.83
2023-03-16T04:26:46.485Z,2.50
2023-03-16T04:29:14.469Z,2.45
2023-03-16T04:31:42.316Z,2.20
2023-03-16T04:34:09.579Z,2.90
2023-03-16T04:36:36.063Z,2.78
2023-03-16T04:39:02.878Z,2.20
2023-03-16T04:41:29.359Z,3.17
2023-03-16T04:43:57.640Z,2.90
2023-03-16T04:46:26.707Z,2.60
2023-03-16T04:48:53.977Z,2.65
2023-03-16T04:51:21.509Z,2.22
2023-03-16T04:53:48.168Z,2.92
2023-03-16T04:56:19.442Z,2.58
2023-03-16T04:58:47.846Z,2.75
2023-03-16T05:01:15.219Z,2.72
2023-03-16T05:03:43.652Z,2.78
2023-03-16T05:06:11.907Z,2.63
2023-03-16T05:08:38.434Z,2.30
2023-03-16T05:11:05.191Z,2.65
2023-03-16T05:13:31.743Z,2.90
2023-03-16T05:15:58.292Z,2.38
2023-03-16T05:18:24.995Z,2.08
2023-03-16T05:20:53.548Z,2.50
2023-03-16T05:23:20.673Z,2.70
2023-03-16T05:25:48.366Z,2.40
2023-03-16T05:28:15.097Z,2.38
2023-03-16T05:30:42.630Z,2.25
2023-03-16T05:33:09.503Z,2.60
2023-03-16T05:35:36.081Z,2.00
2023-03-16T05:38:02.826Z,2.75
2023-03-16T05:40:29.726Z,2.70
2023-03-16T05:42:57.872Z,2.63
2023-03-16T05:45:24.888Z,2.13
2023-03-16T05:47:51.838Z,2.60
2023-03-16T05:50:18.396Z,2.95
2023-03-16T05:52:46.132Z,2.63
2023-03-16T05:55:14.577Z,2.85
2023-03-16T05:57:41.587Z,2.67
2023-03-16T06:00:14.491Z,2.03
2023-03-16T06:05:11.371Z,2.20
2023-03-16T06:07:38.019Z,2.42
2023-03-16T06:10:05.904Z,2.53
2023-03-16T06:12:34.057Z,2.63
2023-03-16T06:15:01.622Z,2.55
2023-03-16T06:17:28.200Z,2.58
2023-03-16T06:19:54.634Z,2.40
2023-03-16T06:22:21.149Z,2.92
2023-03-16T06:24:47.619Z,2.70
2023-03-16T06:27:14.084Z,2.67
2023-03-16T06:29:40.511Z,2.55
2023-03-16T06:32:07.192Z,2.70
2023-03-16T06:34:35.435Z,2.45
2023-03-16T06:37:04.364Z,3.30
2023-03-16T06:39:31.267Z,2.45
2023-03-16T06:41:58.229Z,2.28
2023-03-16T06:44:24.680Z,2.78
2023-03-16T06:46:51.176Z,2.58
2023-03-16T06:49:17.633Z,2.80
2023-03-16T06:51:44.041Z,2.83
2023-03-16T06:54:10.516Z,2.53
2023-03-16T06:56:36.944Z,2.45
2023-03-16T06:59:03.406Z,2.67
2023-03-16T07:01:30.295Z,2.80
2023-03-16T07:03:56.822Z,3.10
2023-03-16T07:06:23.301Z,2.72
2023-03-16T07:08:49.839Z,2.60
2023-03-16T07:11:16.297Z,2.88
2023-03-16T07:13:42.812Z,2.47
2023-03-16T07:16:09.344Z,2.67
2023-03-16T07:18:37.954Z,2.67
2023-03-16T07:21:04.707Z,2.45
2023-03-16T07:23:32.280Z,2.70
2023-03-16T07:25:58.859Z,2.58
2023-03-16T07:28:25.464Z,2.90
2023-03-16T07:31:02.905Z,2.55
2023-03-16T07:33:29.744Z,2.88
2023-03-16T07:35:56.306Z,2.33
2023-03-16T07:38:22.881Z,2.47
2023-03-16T07:40:50.097Z,2.65
2023-03-16T07:43:16.723Z,2.10
2023-03-16T07:45:48.047Z,2.67
2023-03-16T07:48:14.577Z,2.33
2023-03-16T07:50:41.563Z,3.13
2023-03-16T07:53:08.114Z,2.53
2023-03-16T07:55:36.649Z,2.42
2023-03-16T07:58:05.134Z,2.30
2023-03-16T08:00:33.668Z,2.50
2023-03-16T08:03:00.513Z,2.78
2023-03-16T08:05:27.864Z,2.65
2023-03-16T08:07:57.240Z,2.20
2023-03-16T08:10:24.518Z,2.53
2023-03-16T08:12:51.699Z,2.55
2023-03-16T08:15:19.328Z,2.25
2023-03-16T08:17:46.685Z,2.47
2023-03-16T08:20:15.644Z,2.80
2023-03-16T08:22:46.108Z,2.67
2023-03-16T08:25:13.582Z,2.55
2023-03-16T08:27:40.317Z,2.72
2023-03-16T08:30:11.385Z,2.50
2023-03-16T08:32:39.693Z,2.80
2023-03-16T08:35:16.818Z,2.50
2023-03-16T08:37:43.675Z,2.50
2023-03-16T08:40:14.136Z,2.53
2023-03-16T08:42:41.539Z,2.80
2023-03-16T08:45:12.396Z,3.00
2023-03-16T08:47:40.516Z,2.70
2023-03-16T08:50:09.104Z,3.05
2023-03-16T08:52:39.186Z,2.95
2023-03-16T08:55:07.260Z,3.13
2023-03-16T08:57:34.451Z,2.67
2023-03-16T09:00:01.554Z,2.60
2023-03-16T09:02:28.102Z,2.55
2023-03-16T09:04:54.678Z,3.15
2023-03-16T09:07:22.000Z,2.90
2023-03-16T09:09:48.548Z,2.75
2023-03-16T09:12:15.058Z,3.15
2023-03-16T09:14:41.687Z,2.90
2023-03-16T09:17:08.231Z,2.78
2023-03-16T09:19:50.479Z,2.90
2023-03-16T09:22:19.611Z,2.47
2023-03-16T09:24:46.377Z,2.95
2023-03-16T09:27:13.040Z,2.80
2023-03-16T09:29:41.059Z,2.70
2023-03-16T09:32:08.571Z,3.13
2023-03-16T09:34:35.223Z,2.58
2023-03-16T09:37:02.539Z,3.05
2023-03-16T09:39:29.437Z,2.85
2023-03-16T09:42:17.323Z,2.72
2023-03-16T09:44:58.685Z,2.83
2023-03-16T09:47:32.160Z,2.90
2023-03-16T09:50:02.387Z,2.90
2023-03-16T09:52:38.363Z,2.70
2023-03-16T09:55:23.490Z,2.88
2023-03-16T09:57:51.903Z,2.40
2023-03-16T10:00:22.250Z,2.80
2023-03-16T10:03:10.035Z,2.72
2023-03-16T10:05:37.542Z,3.38
2023-03-16T10:08:21.192Z,2.85
2023-03-16T10:11:25.848Z,3.15
2023-03-16T10:14:17.651Z,2.83
2023-03-16T10:17:01.221Z,2.90
2023-03-16T10:19:39.244Z,3.08
2023-03-16T10:22:17.568Z,2.78
2023-03-16T10:25:09.456Z,3.42
2023-03-16T10:27:38.838Z,3.63
2023-03-16T10:30:20.954Z,3.28
2023-03-16T10:32:48.548Z,2.72
2023-03-16T10:35:37.556Z,3.28
2023-03-16T10:38:04.479Z,2.85
2023-03-16T10:40:33.352Z,3.10
2023-03-16T10:43:16.451Z,2.88
2023-03-16T10:45:43.303Z,4.68
2023-03-16T10:48:15.384Z,3.17
2023-03-16T10:50:44.382Z,4.18
2023-03-16T10:53:21.496Z,3.00
2023-03-16T10:55:48.555Z,3.35
2023-03-16T10:58:30.912Z,2.95
2023-03-16T11:00:57.757Z,3.80
2023-03-16T11:03:32.173Z,2.65
2023-03-16T11:06:04.114Z,3.10
2023-03-16T11:08:34.049Z,3.50
2023-03-16T11:11:09.750Z,3.10
2023-03-16T11:13:38.694Z,3.30
2023-03-16T11:16:37.697Z,3.10
2023-03-16T11:19:31.440Z,3.00
2023-03-16T11:22:17.753Z,3.10
2023-03-16T11:24:53.780Z,3.25
2023-03-16T11:27:37.411Z,2.63
2023-03-16T11:30:12.423Z,2.70
2023-03-16T11:32:42.138Z,3.35
2023-03-16T11:35:16.576Z,2.88
2023-03-16T11:38:10.994Z,3.28
2023-03-16T11:40:47.441Z,2.65
2023-03-16T11:43:16.667Z,2.92
2023-03-16T11:46:22.878Z,2.58
2023-03-16T11:49:14.447Z,2.90
2023-03-16T11:51:52.946Z,2.17
2023-03-16T11:54:53.476Z,2.20
2023-03-16T11:57:46.599Z,2.30
2023-03-16T12:00:36.417Z,2.28
2023-03-16T12:03:31.184Z,2.30
2023-03-16T12:06:22.355Z,2.30
2023-03-16T12:09:07.949Z,2.58
2023-03-16T12:11:48.156Z,1.98
2023-03-16T12:14:27.643Z,2.10
2023-03-16T12:17:15.745Z,2.95
2023-03-16T12:20:07.119Z,2.45
2023-03-16T12:22:39.494Z,2.05
2023-03-16T12:25:16.995Z,2.47
2023-03-16T12:27:45.496Z,2.67
2023-03-16T12:30:58.373Z,2.20
2023-03-16T12:34:08.317Z,2.30
2023-03-16T12:36:50.052Z,1.98
2023-03-16T12:39:38.169Z,2.25
2023-03-16T12:42:20.865Z,2.42
2023-03-16T12:45:02.487Z,2.22
2023-03-16T12:47:50.769Z,2.08
2023-03-16T12:50:19.756Z,2.60
2023-03-16T12:52:49.358Z,2.13
2023-03-16T12:55:34.506Z,2.50
2023-03-16T12:58:06.280Z,2.10
2023-03-16T13:00:35.934Z,2.38
2023-03-16T13:03:03.898Z,2.28
2023-03-16T13:05:34.666Z,1.98
2023-03-16T13:08:14.613Z,2.17
2023-03-16T13:10:41.405Z,2.10
2023-03-16T13:13:16.147Z,2.83
2023-03-16T13:15:47.232Z,2.42
2023-03-16T13:18:20.237Z,1.83
2023-03-16T13:23:24.530Z,2.05
2023-03-16T13:26:05.758Z,1.88
2023-03-16T13:28:35.943Z,2.30
2023-03-16T13:31:04.645Z,1.92
2023-03-16T13:33:38.294Z,2.13
2023-03-16T13:36:08.480Z,1.90
2023-03-16T13:38:34.986Z,1.73
2023-03-16T13:41:10.401Z,2.10
2023-03-16T13:43:41.634Z,1.98
2023-03-16T13:46:21.249Z,1.92
2023-03-16T13:48:48.801Z,2.40
2023-03-16T13:51:18.608Z,2.03
2023-03-16T13:53:45.471Z,2.05
2023-03-16T13:56:17.213Z,2.08
2023-03-16T13:58:48.388Z,2.33
2023-03-16T14:01:33.261Z,2.08
2023-03-16T14:04:08.603Z,2.42
2023-03-16T14:06:36.646Z,2.15
2023-03-16T14:09:06.668Z,2.25
2023-03-16T14:11:33.363Z,1.98
2023-03-16T14:14:00.565Z,2.00
2023-03-16T14:16:29.726Z,1.83
2023-03-16T14:19:06.552Z,2.03
2023-03-16T14:21:34.689Z,2.20
2023-03-16T14:24:05.540Z,2.10
2023-03-16T14:26:46.749Z,2.20
2023-03-16T14:29:31.284Z,2.10
2023-03-16T14:31:59.881Z,1.98
2023-03-16T14:34:34.715Z,1.90
2023-03-16T14:37:11.290Z,2.22
2023-03-16T14:39:40.282Z,2.30
2023-03-16T14:42:15.414Z,1.70
2023-03-16T14:44:42.353Z,1.73
2023-03-16T14:47:22.280Z,2.10
2023-03-16T14:49:48.803Z,1.88
2023-03-16T14:52:33.907Z,1.92
2023-03-16T14:55:03.547Z,2.00
2023-03-16T14:57:30.577Z,1.85
2023-03-16T14:59:56.974Z,1.70
2023-03-16T15:02:29.637Z,2.10
2023-03-16T15:04:57.612Z,1.65
2023-03-16T15:07:27.430Z,1.90
2023-03-16T15:09:56.415Z,1.70
2023-03-16T15:12:25.009Z,1.85
2023-03-16T15:15:10.509Z,1.77
2023-03-16T15:17:37.047Z,1.90
2023-03-16T15:20:04.004Z,1.67
2023-03-16T15:22:33.714Z,1.80
2023-03-16T15:25:23.049Z,1.80
2023-03-16T15:27:50.061Z,1.90
2023-03-16T15:30:19.071Z,1.88
2023-03-16T15:32:45.777Z,1.50
2023-03-16T15:35:12.349Z,1.75
2023-03-16T15:37:39.359Z,1.60
2023-03-16T15:40:16.994Z,1.77
2023-03-16T15:42:46.315Z,1.63
2023-03-16T15:45:17.468Z,1.88
2023-03-16T15:47:44.705Z,1.45
2023-03-16T15:50:15.533Z,2.03
2023-03-16T15:52:47.970Z,2.42
2023-03-16T15:55:33.133Z,1.95
2023-03-16T15:58:02.225Z,1.98
2023-03-16T16:00:31.276Z,1.52
2023-03-16T16:03:08.827Z,1.85
2023-03-16T16:05:36.157Z,1.77
2023-03-16T16:08:02.551Z,1.70
2023-03-16T16:10:29.355Z,1.90
2023-03-16T16:12:56.890Z,1.80
2023-03-16T16:15:31.048Z,2.00
2023-03-16T16:18:19.705Z,1.70
2023-03-16T16:20:44.436Z,1.80
2023-03-16T16:23:10.865Z,2.13
2023-03-16T16:25:41.230Z,1.92
2023-03-16T16:28:19.693Z,1.88
2023-03-16T16:30:46.228Z,1.80
2023-03-16T16:33:24.642Z,1.95
2023-03-16T16:35:52.643Z,1.90
2023-03-16T16:38:19.208Z,2.08
2023-03-16T16:40:46.292Z,1.90
2023-03-16T16:43:29.526Z,2.00
2023-03-16T16:45:56.233Z,2.33
2023-03-16T16:48:31.762Z,2.28
2023-03-16T16:50:59.841Z,2.20
2023-03-16T16:53:26.329Z,2.00
2023-03-16T16:55:53.624Z,1.92
2023-03-16T16:58:24.471Z,1.85
2023-03-16T17:00:58.797Z,1.70
2023-03-16T17:03:28.195Z,1.85
2023-03-16T17:05:57.754Z,1.80
2023-03-16T17:08:25.778Z,2.20
2023-03-16T17:10:53.796Z,1.73
2023-03-16T17:13:36.658Z,1.85
2023-03-16T17:16:03.102Z,1.70
2023-03-16T17:18:29.895Z,1.90
2023-03-16T17:20:56.901Z,2.08
2023-03-16T17:23:32.628Z,2.25
2023-03-16T17:26:11.609Z,1.88
2023-03-16T17:28:43.390Z,2.10
2023-03-16T17:31:12.536Z,2.00
2023-03-16T17:33:39.011Z,2.30
2023-03-16T17:36:06.539Z,2.15
2023-03-16T17:38:33.606Z,2.25
2023-03-16T17:41:00.191Z,2.20
2023-03-16T17:43:29.006Z,2.35
2023-03-16T17:45:55.460Z,2.20
2023-03-16T17:48:24.084Z,2.17
2023-03-16T17:50:51.533Z,2.13
2023-03-16T17:53:19.541Z,2.08
2023-03-16T17:55:46.733Z,2.03
2023-03-16T17:58:23.867Z,1.88
2023-03-16T18:00:50.915Z,2.13
2023-03-16T18:03:17.592Z,2.30
2023-03-16T18:05:45.690Z,2.38
2023-03-16T18:08:46.711Z,2.10
2023-03-16T18:11:19.309Z,2.15
2023-03-16T18:13:47.945Z,2.55
2023-03-16T18:16:19.819Z,2.28
2023-03-16T18:18:46.505Z,2.53
2023-03-16T18:21:58.247Z,2.63
2023-03-16T18:24:26.656Z,2.20
2023-03-16T18:26:53.936Z,2.70
2023-03-16T18:29:20.367Z,2.45
2023-03-16T18:31:47.471Z,2.58
2023-03-16T18:34:23.659Z,2.22
2023-03-16T18:36:53.056Z,2.60
2023-03-16T18:39:21.956Z,2.00
2023-03-16T18:41:48.303Z,2.47
2023-03-16T18:44:22.404Z,2.22
2023-03-16T18:46:50.581Z,2.70
2023-03-16T18:49:19.280Z,2.70
2023-03-16T18:51:49.136Z,2.63
2023-03-16T18:54:18.760Z,2.78
2023-03-16T18:56:45.096Z,2.63
2023-03-16T18:59:12.403Z,2.58
2023-03-16T19:01:42.080Z,3.00
2023-03-16T19:04:23.726Z,2.95
2023-03-16T19:06:53.275Z,2.95
2023-03-16T19:09:26.503Z,2.88
2023-03-16T19:11:53.143Z,2.53
2023-03-16T19:14:45.858Z,2.58
2023-03-16T19:17:12.220Z,2.42
2023-03-16T19:19:38.700Z,2.95
2023-03-16T19:22:16.006Z,3.08
2023-03-16T19:24:47.163Z,2.80
2023-03-16T19:27:25.624Z,3.05
2023-03-16T19:29:53.867Z,2.67
2023-03-16T19:32:22.136Z,2.88
2023-03-16T19:34:49.044Z,2.50
2023-03-16T19:37:16.847Z,3.15
2023-03-16T19:39:43.928Z,3.10
2023-03-16T19:42:25.756Z,3.25
2023-03-16T19:44:52.444Z,3.08
2023-03-16T19:47:27.765Z,2.97
2023-03-16T19:49:54.449Z,2.70
2023-03-16T19:52:21.083Z,3.30
2023-03-16T19:54:47.633Z,3.03
2023-03-16T19:57:17.839Z,2.97
2023-03-16T19:59:47.851Z,2.95
2023-03-16T20:02:38.535Z,3.28
2023-03-16T20:05:05.604Z,3.38
2023-03-16T20:07:37.825Z,3.03
2023-03-16T20:10:08.187Z,3.50
2023-03-16T20:12:42.277Z,3.15
2023-03-16T20:15:20.956Z,2.83
2023-03-16T20:17:49.051Z,3.13
2023-03-16T20:20:22.548Z,3.45
2023-03-16T20:22:49.277Z,3.00
2023-03-16T20:25:16.278Z,3.33
2023-03-16T20:27:43.674Z,3.45
2023-03-16T20:30:18.748Z,3.28
2023-03-16T20:32:46.706Z,3.25
2023-03-16T20:35:32.452Z,3.42
2023-03-16T20:37:59.199Z,3.30
2023-03-16T20:40:26.174Z,3.30
2023-03-16T20:42:53.153Z,3.85
2023-03-16T20:45:24.043Z,3.92
2023-03-16T20:47:52.664Z,3.85
2023-03-16T20:50:30.745Z,3.47
2023-03-16T20:52:57.484Z,3.70
2023-03-16T20:55:27.154Z,3.78
2023-03-16T20:57:55.391Z,3.65
2023-03-16T21:00:37.201Z,3.67
2023-03-16T21:03:13.958Z,3.60
2023-03-16T21:05:40.841Z,3.53
2023-03-16T21:08:08.142Z,3.42
2023-03-16T21:10:34.656Z,3.88
2023-03-16T21:13:01.502Z,3.70
2023-03-16T21:15:31.527Z,3.47
2023-03-16T21:18:15.081Z,3.25
2023-03-16T21:23:17.855Z,3.92
2023-03-16T21:25:48.192Z,3.83
2023-03-16T21:28:15.630Z,3.88
2023-03-16T21:30:48.674Z,4.07
2023-03-16T21:33:23.382Z,3.72
2023-03-16T21:35:50.035Z,3.50
2023-03-16T21:38:20.810Z,3.75
2023-03-16T21:40:48.434Z,3.80
2023-03-16T21:43:15.969Z,4.07
2023-03-16T21:45:43.791Z,3.20
2023-03-16T21:48:18.642Z,3.60
2023-03-16T21:50:45.433Z,3.45
2023-03-16T21:53:22.787Z,3.72
2023-03-16T21:55:51.642Z,3.97
2023-03-16T21:58:18.887Z,3.65
2023-03-16T22:00:46.769Z,3.65
2023-03-16T22:03:50.179Z,3.33
2023-03-16T22:06:18.019Z,3.95
2023-03-16T22:08:44.742Z,3.65
2023-03-16T22:11:23.340Z,3.58
2023-03-16T22:13:51.708Z,3.58
2023-03-16T22:16:21.126Z,3.90
2023-03-16T22:18:50.886Z,3.78
2023-03-16T22:21:39.315Z,3.55
2023-03-16T22:24:13.468Z,3.25
2023-03-16T22:26:40.442Z,3.67
2023-03-16T22:29:28.097Z,3.42
2023-03-16T22:32:10.565Z,3.15
2023-03-16T22:34:53.818Z,3.40
2023-03-16T22:39:50.238Z,3.17
2023-03-16T22:42:33.575Z,2.95
2023-03-16T22:47:32.285Z,2.90
2023-03-16T22:49:59.269Z,3.17
2023-03-16T22:52:29.997Z,3.40
2023-03-16T22:54:58.798Z,3.42
2023-03-16T22:57:25.596Z,3.63
2023-03-16T22:59:52.635Z,3.58
2023-03-16T23:02:24.224Z,3.60
2023-03-16T23:04:51.039Z,3.35
2023-03-16T23:07:18.118Z,3.28
2023-03-16T23:09:44.586Z,3.40
2023-03-16T23:12:17.279Z,3.22
2023-03-16T23:14:43.752Z,3.38
2023-03-16T23:17:18.629Z,3.20
2023-03-16T23:19:45.689Z,3.20
2023-03-16T23:22:12.657Z,3.20
2023-03-16T23:24:39.277Z,3.30
2023-03-16T23:27:16.394Z,3.22
2023-03-16T23:29:43.078Z,3.30
2023-03-16T23:32:11.338Z,2.65
2023-03-16T23:34:37.835Z,2.83
2023-03-16T23:37:04.371Z,2.78
2023-03-16T23:39:30.870Z,3.03
2023-03-16T23:41:57.704Z,2.60
2023-03-16T23:44:27.592Z,2.60
2023-03-16T23:46:54.617Z,2.58
2023-03-16T23:49:27.652Z,2.63
2023-03-16T23:51:56.202Z,2.70
2023-03-16T23:54:25.456Z,2.83
2023-03-16T23:56:52.549Z,2.95
2023-03-16T23:59:20.394Z,2.88
